UAL Europe — MKVS6 — position and weather

sailwx.info

Track history (hours):
 
Tides and Currents Weather Stations Pressure Air Temp Water Temp Dewpoint Dewpoint Depression Visibility Wind Speed Wind Dir Waves Ship Positions

UAL Europe

Last reported at 2015-May-30 01:30 UTC. Time now 2015-May-30 02:31 UTC.
Position N 28°05' W 015°24'.

Length 145 m; draft 5.5 m.

Type: Ship (hazmat cat A). MMSI: 235010190.

Date/timePositionNaut miles runAvg speedWind from/ knotsBaromVisibWave heightAir tempDewpointWater temp
2015-May-30 01:30N 28°05' W 015°24'0 0.0
2015-May-30 00:33N 28°05' W 015°24'0 0.0
2015-May-29 23:33N 28°05' W 015°24'0 0.0
2015-May-29 22:33N 28°05' W 015°23'0 0.0
2015-May-29 21:33N 28°05' W 015°23'0 0.0
2015-May-29 20:33N 28°05' W 015°23'0 0.0
2015-May-29 19:33N 28°05' W 015°23'0 0.0
2015-May-29 18:33N 28°05' W 015°24'0 0.0
2015-May-29 17:33N 28°05' W 015°23'0 0.0
2015-May-29 16:33N 28°05' W 015°24'0 0.0
2015-May-29 15:33N 28°05' W 015°23'0 0.0
2015-May-29 14:33N 28°05' W 015°24'0 0.0
2015-May-29 13:33N 28°05' W 015°24'0 0.0
2015-May-29 12:33N 28°05' W 015°24'0 0.0
2015-May-29 11:24N 28°05' W 015°23'0 0.0
2015-May-29 10:24N 28°05' W 015°24'0 0.0
2015-May-29 09:27N 28°05' W 015°23'0 0.0
2015-May-28 12:32N 28°05' W 015°23'0 0.0
2015-May-28 11:32N 28°05' W 015°23'0 0.0
2015-May-28 10:23N 28°05' W 015°23'0 0.0
2015-May-28 09:20N 28°05' W 015°23'0 0.0
2015-May-28 08:23N 28°05' W 015°23'0 0.1
2015-May-28 07:26N 28°05' W 015°23'0 0.0
2015-May-28 06:26N 28°05' W 015°23'0 0.0
2015-May-28 05:26N 28°05' W 015°23'0 0.0
2015-May-28 04:26N 28°05' W 015°23'0 0.0
2015-May-28 03:29N 28°05' W 015°23'0 0.0
2015-May-28 02:29N 28°05' W 015°23'0 0.0
2015-May-28 01:29N 28°05' W 015°23'0 0.0
2015-May-28 00:29N 28°05' W 015°23'0 0.0
2015-May-27 23:29N 28°05' W 015°23'0 0.0
2015-May-27 22:32N 28°05' W 015°23'0 0.0
2015-May-27 21:32N 28°05' W 015°23'0 0.0
2015-May-27 20:29N 28°05' W 015°23'0 0.0
2015-May-27 19:32N 28°05' W 015°23'0 0.0
2015-May-27 18:32N 28°05' W 015°23'0 0.0
2015-May-27 17:32N 28°05' W 015°23'0 0.0
2015-May-27 16:32N 28°05' W 015°23'0 0.0
2015-May-27 15:32N 28°05' W 015°23'0 0.0
2015-May-27 14:32N 28°05' W 015°23'0 0.1
2015-May-27 13:32N 28°05' W 015°24'0 0.0
2015-May-27 12:32N 28°05' W 015°24'0 0.0
2015-May-27 11:32N 28°05' W 015°23'0 0.3
2015-May-27 10:33N 28°05' W 015°23'1 0.8
2015-May-27 09:33N 28°05' W 015°22'0 0.4
2015-May-27 08:33N 28°06' W 015°23'0 0.2
2015-May-27 07:34N 28°05' W 015°22'2 1.8
2015-May-27 06:33N 28°04' W 015°21'6 6.1
2015-May-27 05:33N 28°00' W 015°16'1111.1
2015-May-27 04:33N 27°49' W 015°15'1211.5
2015-May-27 03:33N 27°38' W 015°17'  
Track history (hours):
 
Tides and Currents Weather Stations Pressure Air Temp Water Temp Dewpoint Dewpoint Depression Visibility Wind Speed Wind Dir Waves Ship Positions

UAL Europe

Last reported at 2015-May-30 01:30 UTC. Time now 2015-May-30 02:31 UTC.
Position N 28°05' W 015°24'.

Length 145 m; draft 5.5 m.

Type: Ship (hazmat cat A). MMSI: 235010190.

Date/timePositionNaut miles runAvg speedWind from/ knotsBaromVisibWave heightAir tempDewpointWater temp
2015-May-30 01:30N 28°05' W 015°24'0 0.0
2015-May-30 00:33N 28°05' W 015°24'0 0.0
2015-May-29 23:33N 28°05' W 015°24'0 0.0
2015-May-29 22:33N 28°05' W 015°23'0 0.0
2015-May-29 21:33N 28°05' W 015°23'0 0.0
2015-May-29 20:33N 28°05' W 015°23'0 0.0
2015-May-29 19:33N 28°05' W 015°23'0 0.0
2015-May-29 18:33N 28°05' W 015°24'0 0.0
2015-May-29 17:33N 28°05' W 015°23'0 0.0
2015-May-29 16:33N 28°05' W 015°24'0 0.0
2015-May-29 15:33N 28°05' W 015°23'0 0.0
2015-May-29 14:33N 28°05' W 015°24'0 0.0
2015-May-29 13:33N 28°05' W 015°24'0 0.0
2015-May-29 12:33N 28°05' W 015°24'0 0.0
2015-May-29 11:24N 28°05' W 015°23'0 0.0
2015-May-29 10:24N 28°05' W 015°24'0 0.0
2015-May-29 09:27N 28°05' W 015°23'0 0.0
2015-May-28 12:32N 28°05' W 015°23'0 0.0
2015-May-28 11:32N 28°05' W 015°23'0 0.0
2015-May-28 10:23N 28°05' W 015°23'0 0.0
2015-May-28 09:20N 28°05' W 015°23'0 0.0
2015-May-28 08:23N 28°05' W 015°23'0 0.1
2015-May-28 07:26N 28°05' W 015°23'0 0.0
2015-May-28 06:26N 28°05' W 015°23'0 0.0
2015-May-28 05:26N 28°05' W 015°23'0 0.0
2015-May-28 04:26N 28°05' W 015°23'0 0.0
2015-May-28 03:29N 28°05' W 015°23'0 0.0
2015-May-28 02:29N 28°05' W 015°23'0 0.0
2015-May-28 01:29N 28°05' W 015°23'0 0.0
2015-May-28 00:29N 28°05' W 015°23'0 0.0
2015-May-27 23:29N 28°05' W 015°23'0 0.0
2015-May-27 22:32N 28°05' W 015°23'0 0.0
2015-May-27 21:32N 28°05' W 015°23'0 0.0
2015-May-27 20:29N 28°05' W 015°23'0 0.0
2015-May-27 19:32N 28°05' W 015°23'0 0.0
2015-May-27 18:32N 28°05' W 015°23'0 0.0
2015-May-27 17:32N 28°05' W 015°23'0 0.0
2015-May-27 16:32N 28°05' W 015°23'0 0.0
2015-May-27 15:32N 28°05' W 015°23'0 0.0
2015-May-27 14:32N 28°05' W 015°23'0 0.1
2015-May-27 13:32N 28°05' W 015°24'0 0.0
2015-May-27 12:32N 28°05' W 015°24'0 0.0
2015-May-27 11:32N 28°05' W 015°23'0 0.3
2015-May-27 10:33N 28°05' W 015°23'1 0.8
2015-May-27 09:33N 28°05' W 015°22'0 0.4
2015-May-27 08:33N 28°06' W 015°23'0 0.2
2015-May-27 07:34N 28°05' W 015°22'2 1.8
2015-May-27 06:33N 28°04' W 015°21'6 6.1
2015-May-27 05:33N 28°00' W 015°16'1111.1
2015-May-27 04:33N 27°49' W 015°15'1211.5
2015-May-27 03:33N 27°38' W 015°17'  

Dump ship's entire track history